sensor_id;sensor_type;location;lat;lon;timestamp;temperature;humidity
45837;DHT22;31548;51.420;-0.040;2022-10-04T00:03:09;13.80;99.90
45837;DHT22;31548;51.420;-0.040;2022-10-04T00:05:39;13.90;99.90
45837;DHT22;31548;51.420;-0.040;2022-10-04T00:10:47;14.00;99.90
45837;DHT22;31548;51.420;-0.040;2022-10-04T00:13:22;14.00;99.90
45837;DHT22;31548;51.420;-0.040;2022-10-04T00:15:51;14.00;99.90
45837;DHT22;31548;51.420;-0.040;2022-10-04T00:21:01;14.10;99.90
45837;DHT22;31548;51.420;-0.040;2022-10-04T00:23:41;14.10;99.90
45837;DHT22;31548;51.420;-0.040;2022-10-04T00:27:10;14.10;99.90
45837;DHT22;31548;51.420;-0.040;2022-10-04T00:29:36;14.10;99.90
45837;DHT22;31548;51.420;-0.040;2022-10-04T00:37:02;14.20;99.90
45837;DHT22;31548;51.420;-0.040;2022-10-04T00:39:41;14.20;99.90
45837;DHT22;31548;51.420;-0.040;2022-10-04T00:44:59;14.20;99.90
45837;DHT22;31548;51.420;-0.040;2022-10-04T00:50:34;14.30;99.90
45837;DHT22;31548;51.420;-0.040;2022-10-04T00:53:12;14.40;99.90
45837;DHT22;31548;51.420;-0.040;2022-10-04T00:56:09;14.40;99.90
45837;DHT22;31548;51.420;-0.040;2022-10-04T01:01:26;14.40;99.90
45837;DHT22;31548;51.420;-0.040;2022-10-04T01:03:57;14.50;99.90
45837;DHT22;31548;51.420;-0.040;2022-10-04T01:06:26;14.50;99.90
45837;DHT22;31548;51.420;-0.040;2022-10-04T01:08:55;14.50;99.90
45837;DHT22;31548;51.420;-0.040;2022-10-04T01:11:40;14.50;99.90
45837;DHT22;31548;51.420;-0.040;2022-10-04T01:14:23;14.50;99.90
45837;DHT22;31548;51.420;-0.040;2022-10-04T01:16:52;14.60;99.90
45837;DHT22;31548;51.420;-0.040;2022-10-04T01:22:11;14.60;99.90
45837;DHT22;31548;51.420;-0.040;2022-10-04T01:24:42;14.70;99.90
45837;DHT22;31548;51.420;-0.040;2022-10-04T01:29:59;14.70;99.90
45837;DHT22;31548;51.420;-0.040;2022-10-04T01:32:27;14.80;99.90
45837;DHT22;31548;51.420;-0.040;2022-10-04T01:34:57;14.70;99.90
45837;DHT22;31548;51.420;-0.040;2022-10-04T01:37:25;14.70;99.90
45837;DHT22;31548;51.420;-0.040;2022-10-04T01:39:52;14.80;99.90
45837;DHT22;31548;51.420;-0.040;2022-10-04T01:42:25;14.80;99.90
45837;DHT22;31548;51.420;-0.040;2022-10-04T01:45:00;14.80;99.90
45837;DHT22;31548;51.420;-0.040;2022-10-04T01:47:38;14.80;99.90
45837;DHT22;31548;51.420;-0.040;2022-10-04T01:50:14;14.90;99.90
45837;DHT22;31548;51.420;-0.040;2022-10-04T01:52:54;14.90;99.90
45837;DHT22;31548;51.420;-0.040;2022-10-04T01:55:31;14.90;99.90
45837;DHT22;31548;51.420;-0.040;2022-10-04T01:58:07;14.90;99.90
45837;DHT22;31548;51.420;-0.040;2022-10-04T02:00:48;14.90;99.90
45837;DHT22;31548;51.420;-0.040;2022-10-04T02:03:33;14.90;99.90
45837;DHT22;31548;51.420;-0.040;2022-10-04T02:06:04;14.90;99.90
45837;DHT22;31548;51.420;-0.040;2022-10-04T02:08:38;14.90;99.90
45837;DHT22;31548;51.420;-0.040;2022-10-04T02:11:07;15.00;99.90
45837;DHT22;31548;51.420;-0.040;2022-10-04T02:13:37;14.90;99.90
45837;DHT22;31548;51.420;-0.040;2022-10-04T02:16:10;15.00;99.90
45837;DHT22;31548;51.420;-0.040;2022-10-04T02:18:39;15.00;99.90
45837;DHT22;31548;51.420;-0.040;2022-10-04T02:21:10;15.00;99.90
45837;DHT22;31548;51.420;-0.040;2022-10-04T02:23:39;15.00;99.90
45837;DHT22;31548;51.420;-0.040;2022-10-04T02:26:09;15.00;99.90
45837;DHT22;31548;51.420;-0.040;2022-10-04T02:28:39;15.00;99.90
45837;DHT22;31548;51.420;-0.040;2022-10-04T02:31:07;15.00;99.90
45837;DHT22;31548;51.420;-0.040;2022-10-04T02:33:56;15.00;99.90
45837;DHT22;31548;51.420;-0.040;2022-10-04T02:36:27;15.00;99.90
45837;DHT22;31548;51.420;-0.040;2022-10-04T02:39:06;15.00;99.90
45837;DHT22;31548;51.420;-0.040;2022-10-04T02:41:45;15.00;99.90
45837;DHT22;31548;51.420;-0.040;2022-10-04T02:44:27;15.00;99.90
45837;DHT22;31548;51.420;-0.040;2022-10-04T02:47:19;15.10;99.90
45837;DHT22;31548;51.420;-0.040;2022-10-04T02:49:53;15.00;99.90
45837;DHT22;31548;51.420;-0.040;2022-10-04T02:52:27;15.10;99.90
45837;DHT22;31548;51.420;-0.040;2022-10-04T02:55:06;15.10;99.90
45837;DHT22;31548;51.420;-0.040;2022-10-04T02:57:40;15.10;99.90
45837;DHT22;31548;51.420;-0.040;2022-10-04T03:03:26;15.10;99.90
45837;DHT22;31548;51.420;-0.040;2022-10-04T03:06:06;15.10;99.90
45837;DHT22;31548;51.420;-0.040;2022-10-04T03:11:12;15.10;99.90
45837;DHT22;31548;51.420;-0.040;2022-10-04T03:13:46;15.10;99.90
45837;DHT22;31548;51.420;-0.040;2022-10-04T03:16:14;15.10;99.90
45837;DHT22;31548;51.420;-0.040;2022-10-04T03:18:43;15.10;99.90
45837;DHT22;31548;51.420;-0.040;2022-10-04T03:21:14;15.00;99.90
45837;DHT22;31548;51.420;-0.040;2022-10-04T03:23:42;15.10;99.90
45837;DHT22;31548;51.420;-0.040;2022-10-04T03:26:16;15.00;99.90
45837;DHT22;31548;51.420;-0.040;2022-10-04T03:28:45;15.00;99.90
45837;DHT22;31548;51.420;-0.040;2022-10-04T03:31:14;15.00;99.90
45837;DHT22;31548;51.420;-0.040;2022-10-04T03:33:42;15.00;99.90
45837;DHT22;31548;51.420;-0.040;2022-10-04T03:36:16;15.00;99.90
45837;DHT22;31548;51.420;-0.040;2022-10-04T03:38:46;15.00;99.90
45837;DHT22;31548;51.420;-0.040;2022-10-04T03:41:14;15.10;99.90
45837;DHT22;31548;51.420;-0.040;2022-10-04T03:43:45;15.10;99.90
45837;DHT22;31548;51.420;-0.040;2022-10-04T03:46:16;15.10;99.90
45837;DHT22;31548;51.420;-0.040;2022-10-04T03:48:50;15.10;99.90
45837;DHT22;31548;51.420;-0.040;2022-10-04T03:51:22;15.10;99.90
45837;DHT22;31548;51.420;-0.040;2022-10-04T03:53:56;15.10;99.90
45837;DHT22;31548;51.420;-0.040;2022-10-04T03:56:30;15.10;99.90
45837;DHT22;31548;51.420;-0.040;2022-10-04T03:59:02;15.10;99.90
45837;DHT22;31548;51.420;-0.040;2022-10-04T04:01:34;15.20;99.90
45837;DHT22;31548;51.420;-0.040;2022-10-04T04:04:11;15.20;99.90
45837;DHT22;31548;51.420;-0.040;2022-10-04T04:12:08;15.30;99.90
45837;DHT22;31548;51.420;-0.040;2022-10-04T04:14:38;15.30;99.90
45837;DHT22;31548;51.420;-0.040;2022-10-04T04:17:37;15.30;99.90
45837;DHT22;31548;51.420;-0.040;2022-10-04T04:20:19;15.30;99.90
45837;DHT22;31548;51.420;-0.040;2022-10-04T04:23:06;15.30;99.90
45837;DHT22;31548;51.420;-0.040;2022-10-04T04:25:39;15.30;99.90
45837;DHT22;31548;51.420;-0.040;2022-10-04T04:31:04;15.30;99.90
45837;DHT22;31548;51.420;-0.040;2022-10-04T04:33:42;15.30;99.90
45837;DHT22;31548;51.420;-0.040;2022-10-04T04:36:11;15.30;99.90
45837;DHT22;31548;51.420;-0.040;2022-10-04T04:38:39;15.40;99.90
45837;DHT22;31548;51.420;-0.040;2022-10-04T04:41:27;15.40;99.90
45837;DHT22;31548;51.420;-0.040;2022-10-04T04:43:57;15.40;99.90
45837;DHT22;31548;51.420;-0.040;2022-10-04T04:46:24;15.40;99.90
45837;DHT22;31548;51.420;-0.040;2022-10-04T04:48:59;15.40;99.90
45837;DHT22;31548;51.420;-0.040;2022-10-04T04:51:30;15.40;99.90
45837;DHT22;31548;51.420;-0.040;2022-10-04T04:54:01;15.40;99.90
45837;DHT22;31548;51.420;-0.040;2022-10-04T04:56:29;15.40;99.90
45837;DHT22;31548;51.420;-0.040;2022-10-04T04:59:00;15.40;99.90
45837;DHT22;31548;51.420;-0.040;2022-10-04T05:01:35;15.40;99.90
45837;DHT22;31548;51.420;-0.040;2022-10-04T05:04:17;15.40;99.90
45837;DHT22;31548;51.420;-0.040;2022-10-04T05:07:02;15.40;99.90
45837;DHT22;31548;51.420;-0.040;2022-10-04T05:09:35;15.40;99.90
45837;DHT22;31548;51.420;-0.040;2022-10-04T05:14:43;15.40;99.90
45837;DHT22;31548;51.420;-0.040;2022-10-04T05:17:24;15.40;99.90
45837;DHT22;31548;51.420;-0.040;2022-10-04T05:19:57;15.40;99.90
45837;DHT22;31548;51.420;-0.040;2022-10-04T05:22:26;15.40;99.90
45837;DHT22;31548;51.420;-0.040;2022-10-04T05:24:57;15.40;99.90
45837;DHT22;31548;51.420;-0.040;2022-10-04T05:27:37;15.40;99.90
45837;DHT22;31548;51.420;-0.040;2022-10-04T05:33:44;15.30;99.90
45837;DHT22;31548;51.420;-0.040;2022-10-04T05:38:48;15.30;99.90
45837;DHT22;31548;51.420;-0.040;2022-10-04T05:44:27;15.30;99.90
45837;DHT22;31548;51.420;-0.040;2022-10-04T05:46:59;15.30;99.90
45837;DHT22;31548;51.420;-0.040;2022-10-04T05:49:40;15.30;99.90
45837;DHT22;31548;51.420;-0.040;2022-10-04T05:52:23;15.30;99.90
45837;DHT22;31548;51.420;-0.040;2022-10-04T06:00:43;15.20;99.90
45837;DHT22;31548;51.420;-0.040;2022-10-04T06:06:18;15.20;99.90
45837;DHT22;31548;51.420;-0.040;2022-10-04T06:17:42;15.10;99.90
45837;DHT22;31548;51.420;-0.040;2022-10-04T06:23:13;15.10;99.90
45837;DHT22;31548;51.420;-0.040;2022-10-04T06:25:54;15.10;99.90
45837;DHT22;31548;51.420;-0.040;2022-10-04T06:28:31;15.10;99.90
45837;DHT22;31548;51.420;-0.040;2022-10-04T06:34:37;15.10;99.90
45837;DHT22;31548;51.420;-0.040;2022-10-04T06:46:05;15.10;99.90
45837;DHT22;31548;51.420;-0.040;2022-10-04T06:54:33;15.20;99.90
45837;DHT22;31548;51.420;-0.040;2022-10-04T06:57:35;15.20;99.90
45837;DHT22;31548;51.420;-0.040;2022-10-04T07:00:28;15.20;99.90
45837;DHT22;31548;51.420;-0.040;2022-10-04T07:03:19;15.30;99.90
45837;DHT22;31548;51.420;-0.040;2022-10-04T07:08:40;15.30;99.90
45837;DHT22;31548;51.420;-0.040;2022-10-04T07:24:46;15.50;99.90
45837;DHT22;31548;51.420;-0.040;2022-10-04T07:27:30;15.50;99.90
45837;DHT22;31548;51.420;-0.040;2022-10-04T07:30:02;15.50;99.90
45837;DHT22;31548;51.420;-0.040;2022-10-04T07:32:34;15.50;99.90
45837;DHT22;31548;51.420;-0.040;2022-10-04T07:38:02;15.50;99.90
45837;DHT22;31548;51.420;-0.040;2022-10-04T07:40:36;15.50;99.90
45837;DHT22;31548;51.420;-0.040;2022-10-04T07:43:21;15.60;99.90
45837;DHT22;31548;51.420;-0.040;2022-10-04T07:45:59;15.60;99.90
45837;DHT22;31548;51.420;-0.040;2022-10-04T07:48:29;15.70;99.90
45837;DHT22;31548;51.420;-0.040;2022-10-04T07:56:07;15.80;99.90
45837;DHT22;31548;51.420;-0.040;2022-10-04T07:59:05;15.80;99.90
45837;DHT22;31548;51.420;-0.040;2022-10-04T08:01:44;15.90;99.90
45837;DHT22;31548;51.420;-0.040;2022-10-04T08:07:06;16.00;99.90
45837;DHT22;31548;51.420;-0.040;2022-10-04T08:09:40;16.10;99.90
45837;DHT22;31548;51.420;-0.040;2022-10-04T08:12:19;16.10;99.90
45837;DHT22;31548;51.420;-0.040;2022-10-04T08:28:43;16.30;99.90
45837;DHT22;31548;51.420;-0.040;2022-10-04T08:56:14;16.50;99.90
45837;DHT22;31548;51.420;-0.040;2022-10-04T08:59:15;16.50;99.90
45837;DHT22;31548;51.420;-0.040;2022-10-04T09:02:15;16.50;99.90
45837;DHT22;31548;51.420;-0.040;2022-10-04T09:10:37;16.50;99.90
45837;DHT22;31548;51.420;-0.040;2022-10-04T09:13:47;16.60;99.90
45837;DHT22;31548;51.420;-0.040;2022-10-04T09:16:23;16.60;99.90
45837;DHT22;31548;51.420;-0.040;2022-10-04T09:19:21;16.60;99.90
45837;DHT22;31548;51.420;-0.040;2022-10-04T09:30:18;16.90;99.90
45837;DHT22;31548;51.420;-0.040;2022-10-04T09:33:14;17.00;99.90
45837;DHT22;31548;51.420;-0.040;2022-10-04T09:36:05;17.10;99.90
45837;DHT22;31548;51.420;-0.040;2022-10-04T09:50:47;17.50;99.90
45837;DHT22;31548;51.420;-0.040;2022-10-04T10:04:46;17.20;99.90
45837;DHT22;31548;51.420;-0.040;2022-10-04T10:07:34;17.20;99.90
45837;DHT22;31548;51.420;-0.040;2022-10-04T10:10:12;17.20;99.90
45837;DHT22;31548;51.420;-0.040;2022-10-04T10:25:09;17.20;99.90
45837;DHT22;31548;51.420;-0.040;2022-10-04T10:33:56;17.50;99.90
45837;DHT22;31548;51.420;-0.040;2022-10-04T10:36:38;17.60;99.90
45837;DHT22;31548;51.420;-0.040;2022-10-04T10:42:07;17.70;99.90
45837;DHT22;31548;51.420;-0.040;2022-10-04T10:56:42;18.00;99.90
45837;DHT22;31548;51.420;-0.040;2022-10-04T11:14:41;18.20;99.90
45837;DHT22;31548;51.420;-0.040;2022-10-04T11:17:17;18.20;99.90
45837;DHT22;31548;51.420;-0.040;2022-10-04T11:37:41;17.90;99.90
45837;DHT22;31548;51.420;-0.040;2022-10-04T12:14:57;18.50;99.90
45837;DHT22;31548;51.420;-0.040;2022-10-04T12:20:28;18.60;99.90
45837;DHT22;31548;51.420;-0.040;2022-10-04T12:31:51;18.20;99.90
45837;DHT22;31548;51.420;-0.040;2022-10-04T12:37:19;18.10;99.90
45837;DHT22;31548;51.420;-0.040;2022-10-04T12:43:03;18.00;99.90
45837;DHT22;31548;51.420;-0.040;2022-10-04T12:45:42;18.00;99.90
45837;DHT22;31548;51.420;-0.040;2022-10-04T12:54:15;17.90;99.90
45837;DHT22;31548;51.420;-0.040;2022-10-04T12:57:10;17.80;99.90
45837;DHT22;31548;51.420;-0.040;2022-10-04T13:05:41;17.80;99.90
45837;DHT22;31548;51.420;-0.040;2022-10-04T13:11:01;17.80;99.90
45837;DHT22;31548;51.420;-0.040;2022-10-04T13:13:43;17.80;99.90
45837;DHT22;31548;51.420;-0.040;2022-10-04T13:19:59;17.80;99.90
45837;DHT22;31548;51.420;-0.040;2022-10-04T13:31:31;18.00;99.90
45837;DHT22;31548;51.420;-0.040;2022-10-04T13:36:49;18.10;99.90
45837;DHT22;31548;51.420;-0.040;2022-10-04T13:39:39;18.00;99.90
45837;DHT22;31548;51.420;-0.040;2022-10-04T13:48:03;18.00;99.90
45837;DHT22;31548;51.420;-0.040;2022-10-04T13:50:45;17.80;99.90
45837;DHT22;31548;51.420;-0.040;2022-10-04T13:59:26;17.80;99.90
45837;DHT22;31548;51.420;-0.040;2022-10-04T14:02:22;17.90;99.90
45837;DHT22;31548;51.420;-0.040;2022-10-04T14:10:32;18.20;99.90
45837;DHT22;31548;51.420;-0.040;2022-10-04T14:24:49;17.80;99.90
45837;DHT22;31548;51.420;-0.040;2022-10-04T14:30:35;17.80;99.90
45837;DHT22;31548;51.420;-0.040;2022-10-04T14:33:50;17.80;99.90
45837;DHT22;31548;51.420;-0.040;2022-10-04T14:36:47;17.80;99.90
45837;DHT22;31548;51.420;-0.040;2022-10-04T14:48:40;17.60;99.90
45837;DHT22;31548;51.420;-0.040;2022-10-04T14:56:47;17.70;99.90
45837;DHT22;31548;51.420;-0.040;2022-10-04T15:10:55;17.60;99.90
45837;DHT22;31548;51.420;-0.040;2022-10-04T15:13:34;17.60;99.90
45837;DHT22;31548;51.420;-0.040;2022-10-04T15:19:03;17.50;99.90
45837;DHT22;31548;51.420;-0.040;2022-10-04T15:24:22;17.70;99.90
45837;DHT22;31548;51.420;-0.040;2022-10-04T15:38:53;17.70;99.90
45837;DHT22;31548;51.420;-0.040;2022-10-04T15:51:56;17.70;99.90
45837;DHT22;31548;51.420;-0.040;2022-10-04T16:00:13;17.80;99.90
45837;DHT22;31548;51.420;-0.040;2022-10-04T16:05:56;17.70;99.90
45837;DHT22;31548;51.420;-0.040;2022-10-04T16:14:00;17.70;99.90
45837;DHT22;31548;51.420;-0.040;2022-10-04T16:16:40;17.50;99.90
45837;DHT22;31548;51.420;-0.040;2022-10-04T16:21:53;17.60;99.90
45837;DHT22;31548;51.420;-0.040;2022-10-04T16:24:43;17.50;99.90
45837;DHT22;31548;51.420;-0.040;2022-10-04T16:33:37;17.40;99.90
45837;DHT22;31548;51.420;-0.040;2022-10-04T16:36:14;17.40;99.90
45837;DHT22;31548;51.420;-0.040;2022-10-04T16:38:47;17.40;99.90
45837;DHT22;31548;51.420;-0.040;2022-10-04T16:41:41;17.40;99.90
45837;DHT22;31548;51.420;-0.040;2022-10-04T16:44:35;17.40;99.90
45837;DHT22;31548;51.420;-0.040;2022-10-04T16:47:24;17.30;99.90
45837;DHT22;31548;51.420;-0.040;2022-10-04T16:49:55;17.20;99.90
45837;DHT22;31548;51.420;-0.040;2022-10-04T16:55:08;17.30;99.90
45837;DHT22;31548;51.420;-0.040;2022-10-04T16:57:43;17.30;99.90
45837;DHT22;31548;51.420;-0.040;2022-10-04T17:05:54;17.30;99.90
45837;DHT22;31548;51.420;-0.040;2022-10-04T17:08:28;17.30;99.90
45837;DHT22;31548;51.420;-0.040;2022-10-04T17:14:31;17.20;99.90
45837;DHT22;31548;51.420;-0.040;2022-10-04T17:17:21;17.20;99.90
45837;DHT22;31548;51.420;-0.040;2022-10-04T17:19:53;17.10;99.90
45837;DHT22;31548;51.420;-0.040;2022-10-04T17:22:42;17.00;99.90
45837;DHT22;31548;51.420;-0.040;2022-10-04T17:25:28;16.90;99.90
45837;DHT22;31548;51.420;-0.040;2022-10-04T17:28:20;16.90;99.90
45837;DHT22;31548;51.420;-0.040;2022-10-04T17:31:11;16.80;99.90
45837;DHT22;31548;51.420;-0.040;2022-10-04T17:33:49;16.80;99.90
45837;DHT22;31548;51.420;-0.040;2022-10-04T17:36:32;16.80;99.90
45837;DHT22;31548;51.420;-0.040;2022-10-04T17:39:14;16.70;99.90
45837;DHT22;31548;51.420;-0.040;2022-10-04T17:42:28;16.70;99.90
45837;DHT22;31548;51.420;-0.040;2022-10-04T17:47:35;16.70;99.90
45837;DHT22;31548;51.420;-0.040;2022-10-04T17:50:57;16.70;99.90
45837;DHT22;31548;51.420;-0.040;2022-10-04T17:53:58;16.60;99.90
45837;DHT22;31548;51.420;-0.040;2022-10-04T17:56:49;16.60;99.90
45837;DHT22;31548;51.420;-0.040;2022-10-04T17:59:21;16.70;99.90
45837;DHT22;31548;51.420;-0.040;2022-10-04T18:02:02;16.70;99.90
45837;DHT22;31548;51.420;-0.040;2022-10-04T18:04:43;16.70;99.90
45837;DHT22;31548;51.420;-0.040;2022-10-04T18:07:24;16.70;99.90
45837;DHT22;31548;51.420;-0.040;2022-10-04T18:10:00;16.60;99.90
45837;DHT22;31548;51.420;-0.040;2022-10-04T18:12:42;16.60;99.90
45837;DHT22;31548;51.420;-0.040;2022-10-04T18:17:49;16.60;99.90
45837;DHT22;31548;51.420;-0.040;2022-10-04T18:20:18;16.60;99.90
45837;DHT22;31548;51.420;-0.040;2022-10-04T18:25:43;16.60;99.90
45837;DHT22;31548;51.420;-0.040;2022-10-04T18:28:19;16.60;99.90
45837;DHT22;31548;51.420;-0.040;2022-10-04T18:33:16;16.50;99.90
45837;DHT22;31548;51.420;-0.040;2022-10-04T18:36:15;16.50;99.90
45837;DHT22;31548;51.420;-0.040;2022-10-04T18:38:42;16.50;99.90
45837;DHT22;31548;51.420;-0.040;2022-10-04T18:41:18;16.50;99.90
45837;DHT22;31548;51.420;-0.040;2022-10-04T18:43:51;16.50;99.90
45837;DHT22;31548;51.420;-0.040;2022-10-04T18:46:20;16.50;99.90
45837;DHT22;31548;51.420;-0.040;2022-10-04T18:48:54;16.50;99.90
45837;DHT22;31548;51.420;-0.040;2022-10-04T18:56:23;16.50;99.90
45837;DHT22;31548;51.420;-0.040;2022-10-04T19:02:11;16.50;99.90
45837;DHT22;31548;51.420;-0.040;2022-10-04T19:08:01;16.40;99.90
45837;DHT22;31548;51.420;-0.040;2022-10-04T19:10:48;16.40;99.90
45837;DHT22;31548;51.420;-0.040;2022-10-04T19:21:57;16.40;99.90
45837;DHT22;31548;51.420;-0.040;2022-10-04T19:30:03;16.30;99.90
45837;DHT22;31548;51.420;-0.040;2022-10-04T19:35:23;16.30;99.90
45837;DHT22;31548;51.420;-0.040;2022-10-04T19:43:33;16.30;99.90
45837;DHT22;31548;51.420;-0.040;2022-10-04T19:48:49;16.30;99.90
45837;DHT22;31548;51.420;-0.040;2022-10-04T19:51:30;16.20;99.90
45837;DHT22;31548;51.420;-0.040;2022-10-04T19:54:10;16.20;99.90
45837;DHT22;31548;51.420;-0.040;2022-10-04T19:56:53;16.20;99.90
45837;DHT22;31548;51.420;-0.040;2022-10-04T19:59:35;16.20;99.90
45837;DHT22;31548;51.420;-0.040;2022-10-04T20:02:10;16.10;99.90
45837;DHT22;31548;51.420;-0.040;2022-10-04T20:04:39;16.10;99.90
45837;DHT22;31548;51.420;-0.040;2022-10-04T20:07:23;16.10;99.90
45837;DHT22;31548;51.420;-0.040;2022-10-04T20:12:40;16.10;99.90
45837;DHT22;31548;51.420;-0.040;2022-10-04T20:17:44;16.10;99.90
45837;DHT22;31548;51.420;-0.040;2022-10-04T20:23:08;16.20;99.90
45837;DHT22;31548;51.420;-0.040;2022-10-04T20:28:35;16.20;99.90
45837;DHT22;31548;51.420;-0.040;2022-10-04T20:31:49;16.20;99.90
45837;DHT22;31548;51.420;-0.040;2022-10-04T20:33:54;16.20;99.90
45837;DHT22;31548;51.420;-0.040;2022-10-04T20:38:59;16.30;99.90
45837;DHT22;31548;51.420;-0.040;2022-10-04T20:44:00;16.40;99.90
45837;DHT22;31548;51.420;-0.040;2022-10-04T20:46:36;16.40;99.90
45837;DHT22;31548;51.420;-0.040;2022-10-04T20:49:14;16.30;99.90
45837;DHT22;31548;51.420;-0.040;2022-10-04T20:51:48;16.40;99.90
45837;DHT22;31548;51.420;-0.040;2022-10-04T20:54:19;16.40;99.90
45837;DHT22;31548;51.420;-0.040;2022-10-04T20:56:49;16.40;99.90
45837;DHT22;31548;51.420;-0.040;2022-10-04T20:59:17;16.40;99.90
45837;DHT22;31548;51.420;-0.040;2022-10-04T21:02:03;16.40;99.90
45837;DHT22;31548;51.420;-0.040;2022-10-04T21:04:31;16.40;99.90
45837;DHT22;31548;51.420;-0.040;2022-10-04T21:07:04;16.40;99.90
45837;DHT22;31548;51.420;-0.040;2022-10-04T21:09:36;16.50;99.90
45837;DHT22;31548;51.420;-0.040;2022-10-04T21:12:05;16.50;99.90
45837;DHT22;31548;51.420;-0.040;2022-10-04T21:14:34;16.40;99.90
45837;DHT22;31548;51.420;-0.040;2022-10-04T21:17:04;16.40;99.90
45837;DHT22;31548;51.420;-0.040;2022-10-04T21:19:50;16.50;99.90
45837;DHT22;31548;51.420;-0.040;2022-10-04T21:24:55;16.50;99.90
45837;DHT22;31548;51.420;-0.040;2022-10-04T21:27:28;16.50;99.90
45837;DHT22;31548;51.420;-0.040;2022-10-04T21:29:57;16.50;99.90
45837;DHT22;31548;51.420;-0.040;2022-10-04T21:32:25;16.50;99.90
45837;DHT22;31548;51.420;-0.040;2022-10-04T21:34:53;16.50;99.90
45837;DHT22;31548;51.420;-0.040;2022-10-04T21:37:21;16.50;99.90
45837;DHT22;31548;51.420;-0.040;2022-10-04T21:39:48;16.50;99.90
45837;DHT22;31548;51.420;-0.040;2022-10-04T21:42:15;16.50;99.90
45837;DHT22;31548;51.420;-0.040;2022-10-04T21:44:43;16.50;99.90
45837;DHT22;31548;51.420;-0.040;2022-10-04T21:47:10;16.40;99.90
45837;DHT22;31548;51.420;-0.040;2022-10-04T21:49:37;16.50;99.90
45837;DHT22;31548;51.420;-0.040;2022-10-04T21:52:05;16.50;99.90
45837;DHT22;31548;51.420;-0.040;2022-10-04T21:54:33;16.50;99.90
45837;DHT22;31548;51.420;-0.040;2022-10-04T21:57:00;16.50;99.90
45837;DHT22;31548;51.420;-0.040;2022-10-04T21:59:28;16.50;99.90
45837;DHT22;31548;51.420;-0.040;2022-10-04T22:01:55;16.50;99.90
45837;DHT22;31548;51.420;-0.040;2022-10-04T22:04:22;16.50;99.90
45837;DHT22;31548;51.420;-0.040;2022-10-04T22:06:49;16.50;99.90
45837;DHT22;31548;51.420;-0.040;2022-10-04T22:09:17;16.50;99.90
45837;DHT22;31548;51.420;-0.040;2022-10-04T22:11:44;16.50;99.90
45837;DHT22;31548;51.420;-0.040;2022-10-04T22:14:11;16.50;99.90
45837;DHT22;31548;51.420;-0.040;2022-10-04T22:16:39;16.60;99.90
45837;DHT22;31548;51.420;-0.040;2022-10-04T22:19:06;16.50;99.90
45837;DHT22;31548;51.420;-0.040;2022-10-04T22:21:33;16.50;99.90
45837;DHT22;31548;51.420;-0.040;2022-10-04T22:24:02;16.50;99.90
45837;DHT22;31548;51.420;-0.040;2022-10-04T22:26:30;16.50;99.90
45837;DHT22;31548;51.420;-0.040;2022-10-04T22:28:58;16.50;99.90
45837;DHT22;31548;51.420;-0.040;2022-10-04T22:31:27;16.50;99.90
45837;DHT22;31548;51.420;-0.040;2022-10-04T22:33:55;16.50;99.90
45837;DHT22;31548;51.420;-0.040;2022-10-04T22:36:26;16.50;99.90
45837;DHT22;31548;51.420;-0.040;2022-10-04T22:39:16;16.50;99.90
45837;DHT22;31548;51.420;-0.040;2022-10-04T22:41:47;16.50;99.90
45837;DHT22;31548;51.420;-0.040;2022-10-04T22:44:30;16.50;99.90
45837;DHT22;31548;51.420;-0.040;2022-10-04T22:47:03;16.50;99.90
45837;DHT22;31548;51.420;-0.040;2022-10-04T22:49:33;16.60;99.90
45837;DHT22;31548;51.420;-0.040;2022-10-04T22:52:04;16.50;99.90
45837;DHT22;31548;51.420;-0.040;2022-10-04T22:54:33;16.50;99.90
45837;DHT22;31548;51.420;-0.040;2022-10-04T22:57:01;16.50;99.90
45837;DHT22;31548;51.420;-0.040;2022-10-04T22:59:37;16.50;99.90
45837;DHT22;31548;51.420;-0.040;2022-10-04T23:02:14;16.50;99.90
45837;DHT22;31548;51.420;-0.040;2022-10-04T23:04:45;16.50;99.90
45837;DHT22;31548;51.420;-0.040;2022-10-04T23:07:16;16.50;99.90
45837;DHT22;31548;51.420;-0.040;2022-10-04T23:09:44;16.60;99.90
45837;DHT22;31548;51.420;-0.040;2022-10-04T23:12:11;16.60;99.90
45837;DHT22;31548;51.420;-0.040;2022-10-04T23:14:39;16.60;99.90
45837;DHT22;31548;51.420;-0.040;2022-10-04T23:17:24;16.60;99.90
45837;DHT22;31548;51.420;-0.040;2022-10-04T23:20:05;16.60;99.90
45837;DHT22;31548;51.420;-0.040;2022-10-04T23:22:33;16.60;99.90
45837;DHT22;31548;51.420;-0.040;2022-10-04T23:25:00;16.60;99.90
45837;DHT22;31548;51.420;-0.040;2022-10-04T23:27:28;16.60;99.90
45837;DHT22;31548;51.420;-0.040;2022-10-04T23:30:02;16.60;99.90
45837;DHT22;31548;51.420;-0.040;2022-10-04T23:32:30;16.60;99.90
45837;DHT22;31548;51.420;-0.040;2022-10-04T23:34:59;16.60;99.90
45837;DHT22;31548;51.420;-0.040;2022-10-04T23:37:30;16.60;99.90
45837;DHT22;31548;51.420;-0.040;2022-10-04T23:39:58;16.60;99.90
45837;DHT22;31548;51.420;-0.040;2022-10-04T23:42:27;16.60;99.90
45837;DHT22;31548;51.420;-0.040;2022-10-04T23:45:00;16.60;99.90
45837;DHT22;31548;51.420;-0.040;2022-10-04T23:47:33;16.60;99.90
45837;DHT22;31548;51.420;-0.040;2022-10-04T23:50:01;16.70;99.90
45837;DHT22;31548;51.420;-0.040;2022-10-04T23:52:38;16.60;99.90
45837;DHT22;31548;51.420;-0.040;2022-10-04T23:55:28;16.70;99.90
45837;DHT22;31548;51.420;-0.040;2022-10-04T23:57:58;16.70;99.90
